Time;durP1;ratioP1;P1;durP2;ratioP2;P2;SDS_P1;SDS_P2;PMS_P1;PMS_P2;Temp;Humidity;BMP_temperature;BMP_pressure;BME280_temperature;BME280_humidity;BME280_pressure;Samples;Min_cycle;Max_cycle;Signal;HPM_P1;HPM_P2
2022/05/02 00:00:53;;;;;;;17.50;14.55;;;;;;;10.91;54.06;102045.06;5083147;28;20034;-62
2022/05/02 00:03:18;;;;;;;17.92;14.23;;;;;;;10.89;54.39;102042.53;5090487;28;20413;-63
2022/05/02 00:05:43;;;;;;;19.38;14.32;;;;;;;10.89;54.01;102044.47;5089765;28;20502;-62
2022/05/02 00:08:09;;;;;;;18.73;13.93;;;;;;;10.84;54.48;102042.34;5089686;28;20076;-62
2022/05/02 00:10:36;;;;;;;15.50;13.40;;;;;;;10.80;54.51;102038.31;5090067;28;20043;-62
2022/05/02 00:13:02;;;;;;;17.80;13.15;;;;;;;10.77;54.33;102038.78;5090853;28;20546;-62
2022/05/02 00:15:28;;;;;;;20.17;13.63;;;;;;;10.76;54.61;102035.13;5089513;28;20520;-62
2022/05/02 00:17:56;;;;;;;20.77;13.68;;;;;;;10.69;54.48;102027.91;5078958;28;20033;-62
2022/05/02 00:20:23;;;;;;;18.73;14.40;;;;;;;10.68;54.71;102038.19;5076839;28;20079;-62
2022/05/02 00:22:49;;;;;;;18.77;14.52;;;;;;;10.68;54.68;102034.56;5079413;28;20043;-62
2022/05/02 00:25:14;;;;;;;19.65;14.93;;;;;;;10.62;54.53;102027.16;5070970;28;20025;-62
2022/05/02 00:27:41;;;;;;;18.50;15.23;;;;;;;10.60;54.73;102023.72;5079053;28;20048;-62
2022/05/02 00:30:08;;;;;;;22.02;14.65;;;;;;;10.56;54.88;102018.63;5078953;28;20039;-62
2022/05/02 00:32:34;;;;;;;20.58;14.80;;;;;;;10.54;55.03;102018.00;5079667;28;20036;-62
2022/05/02 00:34:59;;;;;;;17.23;14.50;;;;;;;10.54;55.04;102025.50;5089884;28;20123;-62
2022/05/02 00:37:25;;;;;;;18.23;13.45;;;;;;;10.50;55.08;102029.78;5088032;28;20103;-61
2022/05/02 00:39:50;;;;;;;18.02;13.65;;;;;;;10.46;55.17;102017.44;5089364;28;20038;-62
2022/05/02 00:42:20;;;;;;;17.60;13.60;;;;;;;10.41;54.96;102022.78;5090005;28;20024;-62
2022/05/02 00:44:45;;;;;;;18.98;14.48;;;;;;;10.36;55.30;102009.59;5089324;28;20036;-62
2022/05/02 00:47:11;;;;;;;17.52;13.35;;;;;;;10.40;55.15;102016.38;5090696;28;20028;-62
2022/05/02 00:49:38;;;;;;;16.90;14.35;;;;;;;10.34;55.09;102017.31;5090013;28;20074;-62
2022/05/02 00:52:05;;;;;;;16.33;13.65;;;;;;;10.34;55.12;102019.22;5084026;28;20032;-62
2022/05/02 00:54:35;;;;;;;15.75;13.77;;;;;;;10.28;55.44;102016.25;5088000;28;20059;-62
2022/05/02 00:57:01;;;;;;;17.33;14.30;;;;;;;10.32;55.29;102006.41;5088127;28;20075;-61
2022/05/02 00:59:27;;;;;;;19.02;13.55;;;;;;;10.28;55.38;102009.84;5090070;28;20032;-61
2022/05/02 01:01:52;;;;;;;19.85;14.45;;;;;;;10.26;54.88;102014.78;5089920;28;20060;-61
2022/05/02 01:04:18;;;;;;;17.58;13.85;;;;;;;10.24;55.40;102014.13;5086488;28;20040;-62
2022/05/02 01:09:29;;;;;;;15.80;13.75;;;;;;;10.14;55.56;102011.84;5086667;28;20399;-61
2022/05/02 01:11:55;;;;;;;16.88;13.63;;;;;;;10.12;55.35;102013.13;5088219;28;20111;-62
2022/05/02 01:14:20;;;;;;;18.05;14.05;;;;;;;10.06;55.59;102012.06;5090595;28;20020;-61
2022/05/02 01:16:45;;;;;;;17.58;14.20;;;;;;;10.04;55.50;102017.84;5089645;28;20024;-61
2022/05/02 01:19:10;;;;;;;16.70;13.77;;;;;;;10.03;55.74;102007.00;5087917;28;20032;-61
2022/05/02 01:21:38;;;;;;;16.15;13.63;;;;;;;10.03;55.70;102005.06;5090524;28;20032;-61
2022/05/02 01:24:04;;;;;;;18.88;14.52;;;;;;;9.95;55.57;101999.78;5089122;28;20028;-61
2022/05/02 01:26:30;;;;;;;18.70;15.30;;;;;;;9.92;56.20;102004.91;5089554;28;20032;-62
2022/05/02 01:28:58;;;;;;;18.85;14.63;;;;;;;9.94;56.00;102002.75;5086439;28;20023;-62
2022/05/02 01:31:24;;;;;;;17.83;14.38;;;;;;;9.89;55.90;102000.63;5083914;28;20038;-62
2022/05/02 01:33:53;;;;;;;16.10;14.40;;;;;;;9.89;55.62;101994.25;5093228;28;20057;-62
2022/05/02 01:36:20;;;;;;;16.17;14.10;;;;;;;9.91;55.73;101997.66;5094158;28;20036;-62
2022/05/02 01:38:46;;;;;;;19.88;14.45;;;;;;;9.85;55.61;102004.94;5091142;28;20081;-62
2022/05/02 01:41:11;;;;;;;15.23;13.60;;;;;;;9.80;55.82;102001.97;5093091;28;20406;-62
2022/05/02 01:43:37;;;;;;;16.40;13.98;;;;;;;9.76;56.28;102000.72;5092066;28;20476;-62
2022/05/02 01:46:04;;;;;;;15.98;13.07;;;;;;;9.72;56.29;101996.69;5093795;28;20024;-62
2022/05/02 01:48:29;;;;;;;17.52;13.05;;;;;;;9.67;56.04;101999.22;5093183;28;20399;-62
2022/05/02 01:50:55;;;;;;;17.48;14.13;;;;;;;9.64;56.38;101991.38;5092590;28;20032;-62
2022/05/02 01:53:20;;;;;;;18.50;14.30;;;;;;;9.66;56.29;101994.78;5092532;28;20024;-62
2022/05/02 01:55:46;;;;;;;15.95;13.25;;;;;;;9.64;56.31;101999.69;5092862;28;20062;-61
2022/05/02 01:58:11;;;;;;;16.75;13.27;;;;;;;9.63;56.33;101992.44;5092121;28;20525;-62
2022/05/02 02:00:37;;;;;;;17.10;13.65;;;;;;;9.62;56.00;101993.50;5092877;28;20131;-62
2022/05/02 02:03:05;;;;;;;16.55;13.30;;;;;;;9.58;55.97;101985.63;5092261;28;20126;-62
2022/05/02 02:05:48;;;;;;;16.70;13.68;;;;;;;9.56;56.14;101985.00;5092099;28;20024;-62
2022/05/02 02:08:26;;;;;;;16.10;13.45;;;;;;;9.58;55.93;101982.84;5088754;28;20467;-62
2022/05/02 02:10:57;;;;;;;16.20;13.45;;;;;;;9.54;56.43;101989.06;5091509;28;20157;-62
2022/05/02 02:13:25;;;;;;;20.35;14.25;;;;;;;9.49;56.00;101989.72;5093464;28;20413;-62
2022/05/02 02:15:50;;;;;;;16.88;14.45;;;;;;;9.47;56.02;101985.44;5090702;28;20032;-62
2022/05/02 02:18:16;;;;;;;18.58;14.25;;;;;;;9.48;56.21;101987.19;5093113;28;20031;-62
2022/05/02 02:20:43;;;;;;;16.85;14.02;;;;;;;9.43;56.15;101984.19;5093076;28;20040;-62
2022/05/02 02:23:10;;;;;;;15.95;13.35;;;;;;;9.40;56.42;101991.03;5090503;28;20490;-62
2022/05/02 02:25:37;;;;;;;19.10;13.70;;;;;;;9.40;55.82;101981.88;5092603;28;20028;-62
2022/05/02 02:28:02;;;;;;;16.85;13.65;;;;;;;9.38;56.49;101984.00;5091607;28;20104;-62
2022/05/02 02:30:29;;;;;;;15.05;13.40;;;;;;;9.35;56.01;101979.72;5092370;28;20475;-62
2022/05/02 02:32:58;;;;;;;19.38;14.15;;;;;;;9.31;56.89;101987.66;5091950;28;20032;-62
2022/05/02 02:35:24;;;;;;;16.75;13.80;;;;;;;9.29;56.34;101984.22;5092868;28;20039;-62
2022/05/02 02:37:49;;;;;;;15.35;13.75;;;;;;;9.25;56.14;101982.97;5091810;28;20020;-62
2022/05/02 02:40:15;;;;;;;16.67;14.30;;;;;;;9.26;56.13;101992.97;5091346;28;20493;-62
2022/05/02 02:42:41;;;;;;;16.67;14.10;;;;;;;9.22;56.38;101982.53;5091325;28;20028;-62
2022/05/02 02:45:07;;;;;;;19.17;14.70;;;;;;;9.20;56.96;101976.38;5092533;28;20042;-62
2022/05/02 02:47:32;;;;;;;15.88;14.02;;;;;;;9.21;56.41;101980.84;5092646;28;20027;-62
2022/05/02 02:49:57;;;;;;;16.35;14.52;;;;;;;9.19;56.77;101977.44;5091908;28;20024;-62
2022/05/02 02:52:23;;;;;;;16.13;14.43;;;;;;;9.14;56.44;101974.47;5091384;28;20040;-61
2022/05/02 02:54:48;;;;;;;19.52;15.32;;;;;;;9.10;56.78;101966.59;5091724;28;20036;-62
2022/05/02 02:57:13;;;;;;;17.00;15.13;;;;;;;9.12;56.97;101971.03;5091917;28;20020;-62
2022/05/02 02:59:39;;;;;;;21.27;15.27;;;;;;;9.03;56.85;101968.50;5091150;28;20040;-61
2022/05/02 03:02:06;;;;;;;17.80;14.93;;;;;;;9.01;56.72;101965.13;5090561;28;20052;-62
2022/05/02 03:07:15;;;;;;;19.80;16.45;;;;;;;8.99;56.53;101956.16;5090599;28;20589;-62
2022/05/02 03:09:41;;;;;;;21.13;16.85;;;;;;;8.93;56.70;101958.97;5090112;28;20028;-62
2022/05/02 03:12:07;;;;;;;20.02;16.25;;;;;;;8.99;56.65;101958.09;5090378;28;20491;-62
2022/05/02 03:14:32;;;;;;;19.77;16.55;;;;;;;8.96;56.42;101952.97;5092202;28;20123;-61
2022/05/02 03:16:58;;;;;;;18.75;16.70;;;;;;;8.97;56.35;101950.00;5088004;28;20111;-62
2022/05/02 03:19:23;;;;;;;19.55;16.38;;;;;;;8.93;56.73;101957.03;5091662;28;20012;-62
2022/05/02 03:21:48;;;;;;;20.92;15.35;;;;;;;8.90;56.80;101960.22;5091648;28;20026;-61
2022/05/02 03:24:13;;;;;;;21.17;16.45;;;;;;;8.83;57.07;101953.84;5091414;28;20024;-61
2022/05/02 03:26:39;;;;;;;22.38;16.10;;;;;;;8.80;56.62;101946.84;5084116;28;20028;-61
2022/05/02 03:29:04;;;;;;;20.42;16.30;;;;;;;8.85;56.80;101958.13;5087397;28;20032;-61
2022/05/02 03:31:29;;;;;;;19.13;15.98;;;;;;;8.85;56.44;101948.97;5091834;28;20024;-61
2022/05/02 03:33:54;;;;;;;20.90;16.63;;;;;;;8.81;56.61;101954.06;5090160;28;20092;-61
2022/05/02 03:36:20;;;;;;;20.10;16.23;;;;;;;8.80;56.66;101954.28;5091848;28;20028;-61
2022/05/02 03:38:45;;;;;;;20.92;16.98;;;;;;;8.78;56.82;101953.66;5090268;28;20484;-61
2022/05/02 03:41:10;;;;;;;19.02;15.55;;;;;;;8.76;57.75;101950.22;5088825;28;20040;-61
2022/05/02 03:43:36;;;;;;;19.75;16.48;;;;;;;8.74;56.80;101944.91;5090717;28;20075;-61
2022/05/02 03:46:02;;;;;;;19.15;15.57;;;;;;;8.73;56.37;101948.75;5089884;28;20050;-62
2022/05/02 03:48:28;;;;;;;17.58;15.27;;;;;;;8.70;56.71;101949.19;5090712;28;20082;-62
2022/05/02 03:50:54;;;;;;;19.00;15.73;;;;;;;8.71;56.72;101947.25;5089949;28;20521;-62
2022/05/02 03:53:20;;;;;;;24.02;16.58;;;;;;;8.68;56.74;101947.69;5089924;28;20055;-62
2022/05/02 03:55:46;;;;;;;19.95;16.20;;;;;;;8.63;57.14;101944.72;5091080;28;20051;-61
2022/05/02 03:58:12;;;;;;;17.70;14.75;;;;;;;8.64;57.11;101946.41;5090291;28;20482;-61
2022/05/02 04:00:40;;;;;;;18.67;16.27;;;;;;;8.63;56.59;101950.25;5089695;28;20118;-62
2022/05/02 04:03:06;;;;;;;20.20;15.70;;;;;;;8.62;56.75;101951.31;5091101;28;20027;-62
2022/05/02 04:05:31;;;;;;;18.33;15.32;;;;;;;8.59;56.70;101955.34;5090467;28;20039;-62
2022/05/02 04:07:57;;;;;;;19.90;15.48;;;;;;;8.57;56.94;101954.72;5087628;28;20148;-62
2022/05/02 04:10:22;;;;;;;20.00;15.63;;;;;;;8.59;56.93;101950.66;5091314;28;20028;-62
2022/05/02 04:12:47;;;;;;;18.63;16.10;;;;;;;8.56;56.53;101950.25;5089956;28;20383;-62
2022/05/02 04:15:13;;;;;;;18.35;16.15;;;;;;;8.59;57.17;101955.34;5089341;28;20046;-62
2022/05/02 04:17:39;;;;;;;21.58;16.20;;;;;;;8.50;57.61;101956.66;5089464;28;20078;-62
2022/05/02 04:20:06;;;;;;;20.58;15.75;;;;;;;8.49;57.66;101953.03;5090490;28;20475;-62
2022/05/02 04:22:33;;;;;;;17.75;15.73;;;;;;;8.47;56.91;101951.53;5089306;28;20031;-62
2022/05/02 04:24:58;;;;;;;20.55;16.52;;;;;;;8.49;57.17;101949.38;5085915;28;20039;-62
2022/05/02 04:27:24;;;;;;;19.50;16.25;;;;;;;8.49;57.18;101949.38;5088950;28;20106;-62
2022/05/02 04:29:49;;;;;;;20.83;16.48;;;;;;;8.45;57.16;101962.81;5069675;28;20024;-63
2022/05/02 04:32:17;;;;;;;23.17;16.40;;;;;;;8.38;57.26;101953.66;5088112;28;20028;-62
2022/05/02 04:34:42;;;;;;;20.33;16.88;;;;;;;8.46;57.52;101949.84;5090615;28;20445;-62
2022/05/02 04:37:08;;;;;;;20.67;16.90;;;;;;;8.41;57.61;101953.25;5089410;28;20063;-62
2022/05/02 04:39:34;;;;;;;24.13;16.85;;;;;;;8.40;57.66;101958.97;5090831;28;20078;-62
2022/05/02 04:41:59;;;;;;;19.45;16.52;;;;;;;8.37;57.21;101946.44;5087747;28;20387;-62
2022/05/02 04:44:27;;;;;;;22.83;17.67;;;;;;;8.36;57.74;101948.28;5072447;28;20036;-62
2022/05/02 04:46:52;;;;;;;21.70;17.75;;;;;;;8.43;57.52;101955.78;5090725;28;20036;-62
2022/05/02 04:49:18;;;;;;;22.23;18.13;;;;;;;8.43;58.06;101956.63;5089270;28;20040;-62
2022/05/02 04:51:45;;;;;;;21.23;18.50;;;;;;;8.46;57.43;101953.44;5090545;28;20060;-62
2022/05/02 04:54:11;;;;;;;26.63;19.10;;;;;;;8.42;58.21;101956.84;5088924;28;20087;-62
2022/05/02 04:56:36;;;;;;;28.33;19.00;;;;;;;8.44;57.90;101952.78;5089855;28;20028;-62
2022/05/02 04:59:02;;;;;;;29.17;20.52;;;;;;;8.45;58.39;101954.53;5089985;28;20028;-62
2022/05/02 05:01:27;;;;;;;26.27;19.92;;;;;;;8.49;58.93;101958.56;5078669;28;20031;-62
2022/05/02 05:03:52;;;;;;;27.48;19.98;;;;;;;8.47;59.23;101962.59;5076201;28;20400;-62
2022/05/02 05:06:18;;;;;;;29.73;19.75;;;;;;;8.46;59.03;101966.44;5078610;28;20020;-62
2022/05/02 05:08:43;;;;;;;23.80;20.08;;;;;;;8.49;58.97;101961.34;5092321;28;20027;-62
2022/05/02 05:11:27;;;;;;;32.67;20.95;;;;;;;8.59;58.55;101963.66;5091745;28;20067;-62
2022/05/02 05:17:15;;;;;;;29.42;21.45;;;;;;;8.78;59.01;101964.72;5084610;28;20140;-62
2022/05/02 05:19:51;;;;;;;26.50;21.42;;;;;;;8.80;59.54;101963.47;5088181;28;20046;-62
2022/05/02 05:22:38;;;;;;;25.80;22.17;;;;;;;8.89;58.77;101966.00;5094496;28;20024;-62
2022/05/02 05:25:43;;;;;;;28.67;22.45;;;;;;;8.95;59.27;101965.97;5093214;28;20479;-62
2022/05/02 05:28:41;;;;;;;31.70;23.55;;;;;;;8.94;59.77;101958.75;5031923;28;20416;-62
2022/05/02 05:31:15;;;;;;;32.80;23.20;;;;;;;8.92;60.94;101960.00;5093037;28;20032;-62
2022/05/02 05:34:08;;;;;;;29.55;22.42;;;;;;;9.07;60.00;101967.00;5090780;28;20038;-62
2022/05/02 05:36:46;;;;;;;31.02;23.83;;;;;;;9.16;59.96;101956.56;5091255;28;20028;-61
2022/05/02 05:39:25;;;;;;;30.15;23.65;;;;;;;9.21;60.28;101958.69;5092426;28;20791;-62
2022/05/02 05:42:07;;;;;;;29.60;24.52;;;;;;;9.26;59.87;101954.19;5092346;28;20035;-62
2022/05/02 05:45:00;;;;;;;31.27;25.27;;;;;;;9.41;60.10;101964.16;5086848;28;20024;-62
2022/05/02 05:47:39;;;;;;;33.55;25.17;;;;;;;9.45;60.24;101954.34;5091488;28;20029;-62
2022/05/02 05:50:21;;;;;;;34.08;24.80;;;;;;;9.53;59.44;101962.41;5089719;28;20424;-64
2022/05/02 05:53:20;;;;;;;38.65;25.30;;;;;;;9.86;60.46;101962.25;5090417;28;20957;-62
2022/05/02 05:56:10;;;;;;;31.15;24.75;;;;;;;9.92;59.24;101968.84;5089745;28;20115;-63
2022/05/02 05:58:55;;;;;;;32.60;24.65;;;;;;;9.95;58.99;101972.03;5085889;28;20031;-62
2022/05/02 06:01:34;;;;;;;31.13;23.92;;;;;;;9.93;59.13;101968.63;5087109;28;20827;-63
2022/05/02 06:04:04;;;;;;;30.88;24.20;;;;;;;9.96;59.10;101976.50;5091650;28;20106;-62
2022/05/02 06:06:30;;;;;;;33.10;24.98;;;;;;;10.00;59.07;101974.13;5083469;28;20429;-63
2022/05/02 06:09:00;;;;;;;30.27;24.42;;;;;;;10.11;59.38;101975.38;5085303;28;20032;-63
2022/05/02 06:11:27;;;;;;;32.67;26.17;;;;;;;10.24;58.86;101969.72;5081488;28;20082;-63
2022/05/02 06:13:58;;;;;;;32.63;25.95;;;;;;;10.35;58.62;101970.97;5084006;28;20769;-64
2022/05/02 06:19:15;;;;;;;28.75;24.85;;;;;;;10.57;57.96;101975.94;5091758;28;20039;-63
2022/05/02 06:21:42;;;;;;;33.38;24.48;;;;;;;10.68;57.62;101966.00;5080802;28;20082;-62
2022/05/02 06:24:13;;;;;;;33.88;25.08;;;;;;;10.72;58.05;101967.22;5094784;28;20114;-62
2022/05/02 06:26:40;;;;;;;31.73;25.52;;;;;;;10.85;57.57;101965.44;5085058;28;20077;-62
2022/05/02 06:29:12;;;;;;;28.23;24.48;;;;;;;10.95;57.64;101966.59;5088973;28;20034;-62
2022/05/02 06:31:44;;;;;;;27.77;23.10;;;;;;;11.12;57.93;101977.13;5082942;28;20032;-61
2022/05/02 06:34:10;;;;;;;26.02;22.65;;;;;;;11.21;57.27;101970.19;5105394;28;20024;-64
2022/05/02 06:36:51;;;;;;;30.77;24.08;;;;;;;11.24;57.06;101970.59;5085275;28;20040;-63
2022/05/02 06:39:45;;;;;;;28.10;23.73;;;;;;;11.34;56.67;101967.25;5089718;28;20459;-64
2022/05/02 06:42:21;;;;;;;28.45;23.15;;;;;;;11.41;56.99;101965.25;5073718;28;20031;-64
2022/05/02 06:45:12;;;;;;;30.05;23.73;;;;;;;11.57;56.39;101962.94;5088055;28;20116;-64
2022/05/02 06:47:45;;;;;;;25.80;21.92;;;;;;;11.64;56.24;101963.72;5083663;28;20028;-63
2022/05/02 06:50:16;;;;;;;32.35;24.15;;;;;;;11.72;56.18;101971.75;5094433;28;20032;-62
2022/05/02 06:53:05;;;;;;;25.42;21.90;;;;;;;11.85;55.86;101962.41;5083434;28;20119;-63
2022/05/02 06:55:55;;;;;;;27.23;22.55;;;;;;;11.93;55.79;101967.63;5086115;28;20040;-63
2022/05/02 06:58:49;;;;;;;27.05;21.65;;;;;;;12.02;54.97;101969.88;5083913;28;20082;-62
2022/05/02 07:01:38;;;;;;;24.27;20.92;;;;;;;12.11;54.17;101969.53;5084900;28;20036;-61
2022/05/02 07:04:42;;;;;;;24.55;20.85;;;;;;;12.26;54.22;101965.25;5105832;28;20642;-61
2022/05/02 07:07:34;;;;;;;24.73;22.05;;;;;;;12.36;54.15;101967.44;5079805;28;20488;-62
2022/05/02 07:10:12;;;;;;;24.17;20.00;;;;;;;12.41;53.66;101967.56;5086299;28;20123;-59
2022/05/02 07:12:55;;;;;;;23.38;19.75;;;;;;;12.50;53.16;101968.94;5086945;28;20088;-59
2022/05/02 07:15:35;;;;;;;23.67;19.63;;;;;;;12.60;53.09;101964.69;5086416;28;20068;-65
2022/05/02 07:18:04;;;;;;;21.38;18.80;;;;;;;12.67;52.60;101963.50;5087593;28;21459;-63
2022/05/02 07:21:00;;;;;;;16.73;13.57;;;;;;;12.94;54.99;101958.31;5093243;28;20035;-64
2022/05/02 07:24:11;;;;;;;23.13;17.50;;;;;;;13.08;52.63;101958.06;5085158;28;20599;-63
2022/05/02 07:26:38;;;;;;;21.65;17.85;;;;;;;13.12;51.47;101960.13;5084472;28;20040;-63
2022/05/02 07:29:05;;;;;;;21.17;17.35;;;;;;;13.22;51.16;101957.56;5101376;28;20024;-63
2022/05/02 07:31:31;;;;;;;14.07;12.10;;;;;;;13.64;56.01;101967.75;5090111;28;20024;-63
2022/05/02 07:34:01;;;;;;;18.02;15.38;;;;;;;13.65;50.76;101961.06;5096727;28;20528;-63
2022/05/02 07:36:31;;;;;;;21.25;16.50;;;;;;;13.70;49.62;101963.94;5091019;28;20438;-63
2022/05/02 07:38:58;;;;;;;17.63;15.25;;;;;;;13.77;48.98;101961.03;5099593;28;20031;-63
2022/05/02 07:41:27;;;;;;;20.95;16.10;;;;;;;13.80;48.59;101968.91;5094317;28;20029;-62
2022/05/02 07:44:04;;;;;;;18.75;15.43;;;;;;;13.83;48.75;101960.84;5093333;28;20032;-64
2022/05/02 07:46:36;;;;;;;20.20;15.50;;;;;;;13.97;48.63;101962.28;5091021;28;20528;-63
2022/05/02 07:49:03;;;;;;;;;;;;;;;14.04;49.88;101962.13;5085591;28;20028;-63
2022/05/02 07:51:29;;;;;;;21.25;15.75;;;;;;;14.10;47.64;101957.47;5090324;28;19942;-63
2022/05/02 07:53:57;;;;;;;21.80;17.02;;;;;;;14.08;47.65;101956.91;5087425;28;20036;-64
2022/05/02 07:56:25;;;;;;;20.05;16.30;;;;;;;14.25;46.60;101957.78;5083894;28;20056;-63
2022/05/02 07:58:53;;;;;;;21.48;15.65;;;;;;;14.36;46.60;101967.19;5088378;28;20419;-64
2022/05/02 08:01:19;;;;;;;18.73;16.17;;;;;;;14.39;46.66;101963.91;5098904;28;20044;-62
2022/05/02 08:03:44;;;;;;;21.23;15.77;;;;;;;14.46;45.94;101962.66;5094365;27;20509;-63
2022/05/02 08:06:29;;;;;;;21.92;15.95;;;;;;;14.54;45.96;101967.00;5096966;28;20039;-64
2022/05/02 08:09:02;;;;;;;19.77;15.23;;;;;;;14.65;45.16;101971.66;5092667;28;20375;-64
2022/05/02 08:11:58;;;;;;;18.73;14.77;;;;;;;14.71;45.07;101967.00;5088080;28;20070;-62
2022/05/02 08:14:57;;;;;;;20.38;15.50;;;;;;;14.78;45.37;101964.06;5081121;28;20123;-64
2022/05/02 08:17:51;;;;;;;17.92;14.50;;;;;;;14.83;43.66;101959.38;5087066;28;20039;-63
2022/05/02 08:20:28;;;;;;;19.77;14.82;;;;;;;14.86;42.61;101967.25;5088582;28;20042;-63
2022/05/02 08:29:21;;;;;;;20.35;13.93;;;;;;;15.08;42.14;101950.53;5089132;28;20070;-62
2022/05/02 08:32:10;;;;;;;19.38;14.05;;;;;;;15.22;43.19;101948.22;5089784;28;20036;-62
2022/05/02 08:34:38;;;;;;;18.38;14.32;;;;;;;15.28;42.25;101951.94;5091120;28;20131;-62
2022/05/02 08:37:31;;;;;;;18.70;13.95;;;;;;;15.35;42.56;101955.41;5086611;28;20040;-63
2022/05/02 08:40:15;;;;;;;;;;;;;;;15.40;43.01;101950.72;5081149;28;20147;-64
2022/05/02 08:43:17;;;;;;;17.02;13.07;;;;;;;15.49;42.41;101953.94;5084990;28;20371;-64
2022/05/02 08:46:14;;;;;;;16.67;12.93;;;;;;;15.60;42.47;101955.75;5091736;28;20028;-65
2022/05/02 08:52:23;;;;;;;15.77;13.05;;;;;;;15.72;42.28;101950.06;5082566;28;20047;-64
2022/05/02 08:55:18;;;;;;;18.00;13.38;;;;;;;15.85;41.51;101949.66;5088576;28;20031;-64
2022/05/02 08:58:02;;;;;;;16.52;12.82;;;;;;;15.81;41.49;101954.09;5084215;28;20040;-62
2022/05/02 09:00:52;;;;;;;19.73;12.80;;;;;;;15.82;41.09;101952.97;5088994;28;20122;-62
2022/05/02 09:03:58;;;;;;;13.57;9.55;;;;;;;15.97;42.04;101946.72;5086703;28;20046;-63
2022/05/02 09:06:40;;;;;;;16.58;12.77;;;;;;;16.01;40.46;101944.22;5091970;28;20090;-63
2022/05/02 09:09:30;;;;;;;16.23;12.75;;;;;;;15.91;40.39;101945.78;5083091;28;20070;-62
2022/05/02 09:12:19;;;;;;;15.45;9.60;;;;;;;16.12;41.80;101944.06;5085010;28;20130;-62
2022/05/02 09:15:10;;;;;;;12.70;8.50;;;;;;;16.34;42.04;101940.34;5095277;28;20036;-62
2022/05/02 09:17:57;;;;;;;9.05;7.70;;;;;;;16.51;39.89;101938.31;5087486;28;20437;-63
2022/05/02 09:20:25;;;;;;;10.18;7.80;;;;;;;16.65;39.32;101941.47;5094090;28;20032;-63
2022/05/02 09:23:12;;;;;;;8.13;7.20;;;;;;;16.81;40.69;101936.88;5110444;28;20031;-63
2022/05/02 09:25:59;;;;;;;12.15;8.23;;;;;;;16.92;40.07;101935.84;5086270;28;20036;-63
2022/05/02 09:28:43;;;;;;;12.68;9.82;;;;;;;16.96;39.38;101939.78;5096962;28;20020;-63
2022/05/02 09:31:17;;;;;;;20.75;11.15;;;;;;;16.90;38.16;101927.72;5099555;28;20038;-63
2022/05/02 09:34:16;;;;;;;13.48;9.98;;;;;;;16.89;39.17;101931.59;5082080;28;20044;-63
2022/05/02 09:37:01;;;;;;;16.27;10.73;;;;;;;16.84;38.59;101934.38;5081972;28;20511;-63
2022/05/02 09:39:47;;;;;;;13.98;11.73;;;;;;;16.81;38.25;101932.09;5088127;28;20068;-63
2022/05/02 09:43:00;;;;;;;13.65;9.80;;;;;;;16.92;39.16;101933.88;5089756;28;20036;-63
2022/05/02 09:52:09;;;;;;;14.43;8.88;;;;;;;17.24;38.98;101910.50;5091158;28;20088;-61
2022/05/02 09:58:03;;;;;;;14.13;11.25;;;;;;;17.27;37.41;101915.59;5090678;28;20504;-60
2022/05/02 10:01:11;;;;;;;12.35;10.30;;;;;;;17.25;37.73;101905.75;5091109;28;20115;-60
2022/05/02 10:03:53;;;;;;;11.18;9.18;;;;;;;17.29;37.23;101915.31;5096725;28;20039;-60
2022/05/02 10:06:41;;;;;;;14.85;10.05;;;;;;;17.28;37.77;101910.81;5092105;27;20039;-60
2022/05/02 10:09:31;;;;;;;13.85;11.65;;;;;;;17.28;37.42;101906.03;5087549;28;20055;-60
2022/05/02 10:12:17;;;;;;;10.93;9.73;;;;;;;17.35;37.47;101912.25;5088070;28;20118;-61
2022/05/02 10:14:59;;;;;;;11.48;10.07;;;;;;;17.41;37.25;101907.53;5093599;28;20042;-61
2022/05/02 10:17:37;;;;;;;10.02;9.02;;;;;;;17.42;36.29;101915.66;5104508;28;20035;-62
2022/05/02 10:20:15;;;;;;;11.95;10.27;;;;;;;17.38;35.48;101914.53;5086247;28;20038;-61
2022/05/02 10:22:58;;;;;;;11.90;9.95;;;;;;;17.45;36.66;101913.41;5089212;28;20066;-62
2022/05/02 10:25:41;;;;;;;14.40;7.40;;;;;;;17.66;36.69;101906.78;5092534;28;20383;-63
2022/05/02 10:28:27;;;;;;;9.68;8.45;;;;;;;17.68;36.34;101904.53;5100637;28;20123;-64
2022/05/02 10:31:09;;;;;;;10.07;7.35;;;;;;;17.79;36.36;101889.44;5084124;28;20966;-63
2022/05/02 10:33:42;;;;;;;7.72;6.63;;;;;;;17.88;35.65;101899.03;5093040;28;20036;-64
2022/05/02 10:36:10;;;;;;;11.75;8.13;;;;;;;17.84;35.24;101902.66;5090345;28;20036;-66
2022/05/02 10:38:51;;;;;;;11.20;9.85;;;;;;;17.84;35.97;101886.66;5100457;28;20161;-65
2022/05/02 10:41:22;;;;;;;11.65;8.70;;;;;;;17.89;35.69;101888.63;5091819;28;20110;-65
2022/05/02 10:44:00;;;;;;;13.43;9.65;;;;;;;17.78;35.56;101892.53;5082488;28;20387;-65
2022/05/02 10:46:26;;;;;;;7.70;6.90;;;;;;;17.93;36.19;101888.94;5101316;28;20123;-65
2022/05/02 10:48:59;;;;;;;10.38;9.27;;;;;;;17.88;35.32;101879.38;5090521;28;20149;-65
2022/05/02 10:51:40;;;;;;;12.82;9.27;;;;;;;17.81;34.25;101884.41;5091508;28;20732;-66
2022/05/02 10:54:37;;;;;;;13.63;10.63;;;;;;;17.75;35.21;101881.84;5087818;28;20057;-65
2022/05/02 10:57:17;;;;;;;12.10;10.00;;;;;;;17.69;34.83;101883.78;5086272;28;20075;-65
2022/05/02 10:59:44;;;;;;;9.45;6.72;;;;;;;17.91;36.52;101877.97;5094034;28;20036;-66
2022/05/02 11:02:32;;;;;;;10.38;7.07;;;;;;;17.89;35.92;101878.25;5088154;28;20055;-69
2022/05/02 11:05:08;;;;;;;11.73;9.35;;;;;;;17.98;35.97;101869.28;5088299;28;20055;-69
2022/05/02 11:07:48;;;;;;;11.05;7.97;;;;;;;18.05;36.01;101867.88;5104886;28;20129;-67
2022/05/02 11:10:17;;;;;;;8.30;7.35;;;;;;;18.18;36.38;101860.88;5091119;28;20020;-67
2022/05/02 11:12:55;;;;;;;25.88;7.95;;;;;;;18.36;36.83;101863.13;5103054;28;20044;-67
2022/05/02 11:15:25;;;;;;;9.40;8.23;;;;;;;18.32;35.18;101870.44;5090292;28;20035;-70
2022/05/02 11:18:09;;;;;;;12.70;8.60;;;;;;;18.27;35.83;101861.13;5072586;28;20126;-68
2022/05/02 11:21:02;;;;;;;13.85;9.48;;;;;;;18.10;35.76;101862.25;5077119;28;20642;-68
2022/05/02 11:23:27;;;;;;;10.57;9.35;;;;;;;18.07;34.12;101853.53;5088784;28;20032;-65
2022/05/02 11:26:05;;;;;;;11.73;9.27;;;;;;;18.08;34.25;101858.06;5091564;28;20073;-62
2022/05/02 11:29:05;;;;;;;9.10;7.68;;;;;;;18.14;35.08;101854.97;5101323;28;20032;-68
2022/05/02 11:31:37;;;;;;;11.23;7.38;;;;;;;18.26;35.17;101849.06;5077431;28;20035;-69
2022/05/02 11:34:22;;;;;;;10.77;9.68;;;;;;;18.27;34.57;101856.34;5094415;28;20551;-66
2022/05/02 11:36:53;;;;;;;12.13;9.38;;;;;;;18.29;33.39;101853.28;5096800;28;20494;-66
2022/05/02 11:39:44;;;;;;;13.23;9.18;;;;;;;18.30;34.31;101844.56;5104707;28;20085;-67
2022/05/02 11:42:18;;;;;;;16.40;9.45;;;;;;;18.32;35.21;101847.94;5088601;28;20050;-66
2022/05/02 11:45:12;;;;;;;11.20;10.05;;;;;;;18.27;34.42;101847.94;5089538;28;20121;-64
2022/05/02 11:47:55;;;;;;;11.52;9.93;;;;;;;18.24;34.24;101851.31;5085271;28;20028;-64
2022/05/02 11:50:22;;;;;;;11.75;9.07;;;;;;;18.24;33.53;101847.69;5095232;28;20703;-66
2022/05/02 11:52:53;;;;;;;11.27;7.25;;;;;;;18.36;34.71;101849.06;5086558;28;20512;-67
2022/05/02 11:55:25;;;;;;;12.70;9.55;;;;;;;18.30;33.30;101833.31;5079320;28;20492;-65
2022/05/02 11:58:00;;;;;;;12.45;8.93;;;;;;;18.36;33.05;101846.25;5088505;28;20047;-65
2022/05/02 12:00:32;;;;;;;11.73;10.35;;;;;;;18.46;33.61;101841.75;5090326;28;20024;-64
2022/05/02 12:03:21;;;;;;;13.52;9.57;;;;;;;18.46;33.87;101838.94;5090641;28;20518;-65
2022/05/02 12:06:03;;;;;;;12.20;9.13;;;;;;;18.55;33.50;101835.28;5087936;28;20122;-66
2022/05/02 12:08:33;;;;;;;14.38;10.00;;;;;;;18.63;33.02;101826.28;5082724;28;20028;-65
2022/05/02 12:11:03;;;;;;;11.18;7.88;;;;;;;18.66;32.69;101830.47;5091105;28;20032;-65
2022/05/02 12:13:34;;;;;;;9.00;6.82;;;;;;;18.77;33.31;101826.56;5074940;28;20032;-65
2022/05/02 12:16:11;;;;;;;8.45;7.55;;;;;;;18.73;32.96;101828.25;5087962;28;20113;-65